createdAt,value
2023-02-19T00:02:41.511Z,1.83
2023-02-19T00:05:42.944Z,2.03
2023-02-19T00:08:44.600Z,2.20
2023-02-19T00:11:47.545Z,2.00
2023-02-19T00:14:48.968Z,1.73
2023-02-19T00:17:50.386Z,1.70
2023-02-19T00:20:51.824Z,1.80
2023-02-19T00:23:55.957Z,2.00
2023-02-19T00:26:57.510Z,2.20
2023-02-19T00:29:59.051Z,2.03
2023-02-19T00:33:00.642Z,1.90
2023-02-19T00:36:04.023Z,2.08
2023-02-19T00:39:07.896Z,2.20
2023-02-19T00:42:09.391Z,2.25
2023-02-19T00:45:10.920Z,2.35
2023-02-19T00:48:12.464Z,2.00
2023-02-19T00:51:14.860Z,2.13
2023-02-19T00:57:18.498Z,2.03
2023-02-19T01:00:20.124Z,2.00
2023-02-19T01:03:24.619Z,1.92
2023-02-19T01:06:26.254Z,2.20
2023-02-19T01:09:27.762Z,1.95
2023-02-19T01:12:29.608Z,2.00
2023-02-19T01:15:32.977Z,1.90
2023-02-19T01:18:35.471Z,2.30
2023-02-19T01:21:37.233Z,3.10
2023-02-19T01:24:38.837Z,4.45
2023-02-19T01:27:40.308Z,6.10
2023-02-19T01:30:41.786Z,4.53
2023-02-19T01:33:48.536Z,4.88
2023-02-19T01:36:50.056Z,3.13
2023-02-19T01:39:51.545Z,2.03
2023-02-19T01:42:53.052Z,2.20
2023-02-19T01:45:55.344Z,1.98
2023-02-19T01:49:02.278Z,1.98
2023-02-19T01:52:12.945Z,2.13
2023-02-19T01:55:14.546Z,1.95
2023-02-19T01:58:16.584Z,2.13
2023-02-19T02:01:18.151Z,2.00
2023-02-19T02:04:19.809Z,1.90
2023-02-19T02:07:42.111Z,1.83
2023-02-19T02:10:44.207Z,1.75
2023-02-19T02:13:46.251Z,1.88
2023-02-19T02:17:20.223Z,1.77
2023-02-19T02:20:51.892Z,1.67
2023-02-19T02:24:02.504Z,1.95
2023-02-19T02:27:42.389Z,2.13
2023-02-19T02:30:48.709Z,2.10
2023-02-19T02:33:59.621Z,2.10
2023-02-19T02:37:02.585Z,2.10
2023-02-19T02:40:08.154Z,2.30
2023-02-19T02:43:09.913Z,2.40
2023-02-19T02:46:13.218Z,2.25
2023-02-19T02:49:22.465Z,2.42
2023-02-19T02:52:44.092Z,2.22
2023-02-19T02:55:49.438Z,2.50
2023-02-19T02:58:53.282Z,2.30
2023-02-19T03:02:11.289Z,2.33
2023-02-19T03:05:37.137Z,2.38
2023-02-19T03:08:58.841Z,2.40
2023-02-19T03:12:22.001Z,2.45
2023-02-19T03:15:47.322Z,2.55
2023-02-19T03:19:12.533Z,2.88
2023-02-19T03:22:19.976Z,2.55
2023-02-19T03:25:49.091Z,2.42
2023-02-19T03:29:16.805Z,2.45
2023-02-19T03:32:49.469Z,2.33
2023-02-19T03:36:02.587Z,2.88
2023-02-19T03:39:08.507Z,2.55
2023-02-19T03:42:21.797Z,2.40
2023-02-19T03:45:36.280Z,2.50
2023-02-19T03:49:06.140Z,2.60
2023-02-19T03:52:18.482Z,2.72
2023-02-19T03:55:41.508Z,2.67
2023-02-19T03:58:57.571Z,2.72
2023-02-19T04:02:37.367Z,2.80
2023-02-19T04:05:45.525Z,2.50
2023-02-19T04:08:52.544Z,2.42
2023-02-19T04:11:55.145Z,2.53
2023-02-19T04:15:04.973Z,2.70
2023-02-19T04:18:12.506Z,2.65
2023-02-19T04:21:15.527Z,2.53
2023-02-19T04:24:23.257Z,2.20
2023-02-19T04:27:24.769Z,2.30
2023-02-19T04:30:26.494Z,2.00
2023-02-19T04:33:27.981Z,1.88
2023-02-19T04:36:30.766Z,2.20
2023-02-19T04:39:32.682Z,1.95
2023-02-19T04:42:34.157Z,1.70
2023-02-19T04:45:37.829Z,1.40
2023-02-19T04:48:39.434Z,1.25
2023-02-19T04:51:41.127Z,1.00
2023-02-19T04:54:42.644Z,1.10
2023-02-19T04:57:44.189Z,1.10
2023-02-19T05:00:45.720Z,1.00
2023-02-19T05:03:47.249Z,0.83
2023-02-19T05:06:48.735Z,1.10
2023-02-19T05:09:50.245Z,0.90
2023-02-19T05:12:52.259Z,0.80
2023-02-19T05:16:03.068Z,1.20
2023-02-19T05:19:04.562Z,1.10
2023-02-19T05:22:06.092Z,1.10
2023-02-19T05:25:07.691Z,0.90
2023-02-19T05:28:18.246Z,1.00
2023-02-19T05:31:20.834Z,0.93
2023-02-19T05:34:22.392Z,1.00
2023-02-19T05:37:23.885Z,1.03
2023-02-19T05:40:25.391Z,0.87
2023-02-19T05:43:26.917Z,1.00
2023-02-19T05:46:32.439Z,0.90
2023-02-19T05:49:34.070Z,0.90
2023-02-19T05:52:35.587Z,0.90
2023-02-19T05:55:37.135Z,0.70
2023-02-19T05:58:38.636Z,0.60
2023-02-19T06:01:40.147Z,0.70
2023-02-19T06:04:41.691Z,0.50
2023-02-19T06:07:43.297Z,0.57
2023-02-19T06:10:44.806Z,0.50
2023-02-19T06:13:46.739Z,0.70
2023-02-19T06:16:48.222Z,0.60
2023-02-19T06:19:49.667Z,0.60
2023-02-19T06:22:51.771Z,0.50
2023-02-19T06:25:53.196Z,0.40
2023-02-19T06:28:54.743Z,0.52
2023-02-19T06:31:56.243Z,0.60
2023-02-19T06:34:57.712Z,0.60
2023-02-19T06:37:59.114Z,0.60
2023-02-19T06:41:05.041Z,0.65
2023-02-19T06:44:06.520Z,0.60
2023-02-19T06:47:07.952Z,0.57
2023-02-19T06:50:09.372Z,0.47
2023-02-19T06:53:11.657Z,0.53
2023-02-19T06:59:28.146Z,0.50
2023-02-19T07:02:29.593Z,0.50
2023-02-19T07:05:31.064Z,0.60
2023-02-19T07:08:32.493Z,0.60
2023-02-19T07:11:35.484Z,0.70
2023-02-19T07:14:36.932Z,0.60
2023-02-19T07:17:38.371Z,0.70
2023-02-19T07:20:39.808Z,0.60
2023-02-19T07:23:42.326Z,0.70
2023-02-19T07:26:43.954Z,0.57
2023-02-19T07:29:45.383Z,0.50
2023-02-19T07:32:46.869Z,0.70
2023-02-19T07:35:49.819Z,0.60
2023-02-19T07:38:58.822Z,0.47
2023-02-19T07:42:00.681Z,0.50
2023-02-19T07:45:02.214Z,0.70
2023-02-19T07:48:03.847Z,0.67
2023-02-19T07:51:07.283Z,0.80
2023-02-19T07:54:08.725Z,1.10
2023-02-19T07:57:10.147Z,0.80
2023-02-19T08:00:12.071Z,2.97
2023-02-19T08:03:16.526Z,0.60
2023-02-19T08:06:17.993Z,0.73
2023-02-19T08:09:19.394Z,0.70
2023-02-19T08:12:39.432Z,0.70
2023-02-19T08:15:40.818Z,1.17
2023-02-19T08:18:42.351Z,1.10
2023-02-19T08:21:43.855Z,1.20
2023-02-19T08:24:45.281Z,1.37
2023-02-19T08:27:46.674Z,1.00
2023-02-19T08:30:48.856Z,1.30
2023-02-19T08:33:50.472Z,1.50
2023-02-19T08:36:52.078Z,1.20
2023-02-19T08:39:53.491Z,1.50
2023-02-19T08:42:54.928Z,1.90
2023-02-19T08:45:56.504Z,2.30
2023-02-19T08:48:58.004Z,2.60
2023-02-19T08:51:59.449Z,5.80
2023-02-19T08:55:01.754Z,2.90
2023-02-19T08:58:03.413Z,1.77
2023-02-19T09:01:17.709Z,4.30
2023-02-19T09:04:19.177Z,5.15
2023-02-19T09:07:20.591Z,2.00
2023-02-19T09:10:22.107Z,2.27
2023-02-19T09:13:23.585Z,2.28
2023-02-19T09:16:25.062Z,1.90
2023-02-19T09:19:27.566Z,1.90
2023-02-19T09:22:29.008Z,1.58
2023-02-19T09:25:30.406Z,1.97
2023-02-19T09:28:32.249Z,1.60
2023-02-19T09:31:35.224Z,1.40
2023-02-19T09:34:39.019Z,1.42
2023-02-19T09:37:40.494Z,2.03
2023-02-19T09:40:42.070Z,2.00
2023-02-19T09:43:43.866Z,2.10
2023-02-19T09:46:48.726Z,2.67
2023-02-19T09:49:57.152Z,1.65
2023-02-19T09:53:03.721Z,1.60
2023-02-19T09:56:05.723Z,1.60
2023-02-19T09:59:17.484Z,1.50
2023-02-19T10:02:24.357Z,1.50
2023-02-19T10:05:26.688Z,1.65
2023-02-19T10:08:32.453Z,1.65
2023-02-19T10:11:33.937Z,1.98
2023-02-19T10:14:48.316Z,2.20
2023-02-19T10:17:49.718Z,2.20
2023-02-19T10:20:52.652Z,2.00
2023-02-19T10:24:00.025Z,2.00
2023-02-19T10:27:01.634Z,1.80
2023-02-19T10:30:03.371Z,2.10
2023-02-19T10:33:14.313Z,2.05
2023-02-19T10:36:24.823Z,2.50
2023-02-19T10:39:40.107Z,2.70
2023-02-19T10:42:46.677Z,2.50
2023-02-19T10:45:50.379Z,2.50
2023-02-19T10:48:57.161Z,2.22
2023-02-19T10:52:02.795Z,2.10
2023-02-19T10:55:24.414Z,2.60
2023-02-19T10:58:27.618Z,2.40
2023-02-19T11:01:29.198Z,2.40
2023-02-19T11:04:35.227Z,2.35
2023-02-19T11:07:39.063Z,2.20
2023-02-19T11:10:44.823Z,2.30
2023-02-19T11:13:46.231Z,2.10
2023-02-19T11:16:56.982Z,2.40
2023-02-19T11:20:05.508Z,2.10
2023-02-19T11:23:17.016Z,2.30
2023-02-19T11:26:21.639Z,2.10
2023-02-19T11:29:24.594Z,2.17
2023-02-19T11:32:29.676Z,2.22
2023-02-19T11:35:31.111Z,2.15
2023-02-19T11:38:32.517Z,2.03
2023-02-19T11:41:50.570Z,1.90
2023-02-19T11:45:10.852Z,2.28
2023-02-19T11:48:32.680Z,1.90
2023-02-19T11:52:13.420Z,2.13
2023-02-19T11:55:26.861Z,2.20
2023-02-19T11:58:37.341Z,1.83
2023-02-19T12:02:07.743Z,1.92
2023-02-19T12:06:00.591Z,1.60
2023-02-19T12:09:28.795Z,1.77
2023-02-19T12:12:42.955Z,1.90
2023-02-19T12:15:51.196Z,2.10
2023-02-19T12:19:17.499Z,2.10
2023-02-19T12:22:33.952Z,2.33
2023-02-19T12:25:56.603Z,2.10
2023-02-19T12:29:13.223Z,1.95
2023-02-19T12:32:39.966Z,1.98
2023-02-19T12:35:53.162Z,1.85
2023-02-19T12:39:31.620Z,1.73
2023-02-19T12:43:01.716Z,1.80
2023-02-19T12:46:09.808Z,1.85
2023-02-19T12:49:19.119Z,2.13
2023-02-19T12:52:28.255Z,1.77
2023-02-19T12:55:39.220Z,2.28
2023-02-19T12:58:46.508Z,2.13
2023-02-19T13:02:19.274Z,2.22
2023-02-19T13:05:32.667Z,2.05
2023-02-19T13:09:05.730Z,1.80
2023-02-19T13:12:38.067Z,2.00
2023-02-19T13:15:42.224Z,2.20
2023-02-19T13:18:50.868Z,2.10
2023-02-19T13:22:21.725Z,1.75
2023-02-19T13:25:33.152Z,2.03
2023-02-19T13:28:59.384Z,1.70
2023-02-19T13:32:40.453Z,1.80
2023-02-19T13:35:56.970Z,1.67
2023-02-19T13:38:59.547Z,1.75
2023-02-19T13:42:01.724Z,1.73
2023-02-19T13:45:06.341Z,2.30
2023-02-19T13:48:24.757Z,1.90
2023-02-19T13:51:29.214Z,1.98
2023-02-19T13:54:37.175Z,1.83
2023-02-19T13:57:39.305Z,2.35
2023-02-19T14:00:51.928Z,1.77
2023-02-19T14:04:06.449Z,2.00
2023-02-19T14:07:07.838Z,1.80
2023-02-19T14:10:14.041Z,2.40
2023-02-19T14:13:50.648Z,2.08
2023-02-19T14:16:56.817Z,2.42
2023-02-19T14:20:50.911Z,2.22
2023-02-19T14:23:55.949Z,2.05
2023-02-19T14:26:57.695Z,2.25
2023-02-19T14:29:59.903Z,2.00
2023-02-19T14:33:10.495Z,2.20
2023-02-19T14:36:44.007Z,2.08
2023-02-19T14:39:47.033Z,2.00
2023-02-19T14:42:51.464Z,1.83
2023-02-19T14:45:57.770Z,2.63
2023-02-19T14:49:15.051Z,2.65
2023-02-19T14:52:21.960Z,2.40
2023-02-19T14:55:32.642Z,2.20
2023-02-19T14:58:36.908Z,2.20
2023-02-19T15:01:39.246Z,1.95
2023-02-19T15:04:40.790Z,2.10
2023-02-19T15:07:42.733Z,2.37
2023-02-19T15:10:44.874Z,2.33
2023-02-19T15:13:56.133Z,2.50
2023-02-19T15:17:03.967Z,2.80
2023-02-19T15:20:16.430Z,2.55
2023-02-19T15:26:33.230Z,2.28
2023-02-19T15:29:37.118Z,2.25
2023-02-19T15:32:38.591Z,3.35
2023-02-19T15:35:40.111Z,2.87
2023-02-19T15:38:41.665Z,2.38
2023-02-19T15:41:44.591Z,2.88
2023-02-19T15:44:55.087Z,2.33
2023-02-19T15:48:03.379Z,2.75
2023-02-19T15:51:11.260Z,2.60
2023-02-19T15:54:39.859Z,3.38
2023-02-19T15:57:45.718Z,2.30
2023-02-19T16:00:50.305Z,7.00
2023-02-19T16:03:54.067Z,2.88
2023-02-19T16:07:01.403Z,4.20
2023-02-19T16:10:20.894Z,2.78
2023-02-19T16:13:24.405Z,5.43
2023-02-19T16:16:30.530Z,3.08
2023-02-19T16:19:44.051Z,4.47
2023-02-19T16:22:45.821Z,3.60
2023-02-19T16:25:48.191Z,2.95
2023-02-19T16:32:02.325Z,2.63
2023-02-19T16:35:04.304Z,2.70
2023-02-19T16:38:16.846Z,3.03
2023-02-19T16:44:38.855Z,3.63
2023-02-19T16:47:44.885Z,3.95
2023-02-19T16:50:46.277Z,3.28
2023-02-19T16:53:47.715Z,3.93
2023-02-19T16:56:49.135Z,3.93
2023-02-19T16:59:50.642Z,3.60
2023-02-19T17:02:55.285Z,3.47
2023-02-19T17:05:56.777Z,3.20
2023-02-19T17:08:58.953Z,2.60
2023-02-19T17:12:00.454Z,2.95
2023-02-19T17:15:01.895Z,3.37
2023-02-19T17:18:03.437Z,4.73
2023-02-19T17:21:14.213Z,4.70
2023-02-19T17:24:15.648Z,3.97
2023-02-19T17:27:17.275Z,3.87
2023-02-19T17:30:40.421Z,4.20
2023-02-19T17:33:42.876Z,3.63
2023-02-19T17:39:46.975Z,3.67
2023-02-19T17:42:48.502Z,3.80
2023-02-19T17:45:50.918Z,3.60
2023-02-19T17:51:54.418Z,3.30
2023-02-19T17:54:55.833Z,3.10
2023-02-19T17:57:57.343Z,3.50
2023-02-19T18:00:59.046Z,3.33
2023-02-19T18:04:00.722Z,3.55
2023-02-19T18:07:02.844Z,3.00
2023-02-19T18:10:06.102Z,3.78
2023-02-19T18:13:09.338Z,3.70
2023-02-19T18:16:11.178Z,4.13
2023-02-19T18:19:12.741Z,4.80
2023-02-19T18:22:14.179Z,4.60
2023-02-19T18:25:17.072Z,4.60
2023-02-19T18:28:18.604Z,4.35
2023-02-19T18:31:20.145Z,4.73
2023-02-19T18:34:21.962Z,5.40
2023-02-19T18:37:25.108Z,4.20
2023-02-19T18:40:26.695Z,3.83
2023-02-19T18:43:28.142Z,4.03
2023-02-19T18:46:32.252Z,4.15
2023-02-19T18:49:33.928Z,4.47
2023-02-19T18:52:35.382Z,4.38
2023-02-19T18:55:36.996Z,4.47
2023-02-19T18:58:38.393Z,4.70
2023-02-19T19:01:39.880Z,4.67
2023-02-19T19:04:42.992Z,5.57
2023-02-19T19:07:44.455Z,4.88
2023-02-19T19:10:45.887Z,5.37
2023-02-19T19:13:47.356Z,5.60
2023-02-19T19:16:49.342Z,5.20
2023-02-19T19:19:50.773Z,4.72
2023-02-19T19:22:52.951Z,6.60
2023-02-19T19:25:54.707Z,6.25
2023-02-19T19:28:56.190Z,7.00
2023-02-19T19:31:57.786Z,8.83
2023-02-19T19:34:59.442Z,8.68
2023-02-19T19:38:00.895Z,8.20
2023-02-19T19:41:02.383Z,9.03
2023-02-19T19:44:05.321Z,8.63
2023-02-19T19:47:06.792Z,7.97
2023-02-19T19:50:09.439Z,9.10
2023-02-19T19:53:10.892Z,8.60
2023-02-19T19:56:12.408Z,9.27
2023-02-19T19:59:15.499Z,10.77
2023-02-19T20:02:17.603Z,9.95
2023-02-19T20:05:19.086Z,8.20
2023-02-19T20:08:21.208Z,7.47
2023-02-19T20:11:23.179Z,8.27
2023-02-19T20:14:25.702Z,9.63
2023-02-19T20:17:28.778Z,8.55
2023-02-19T20:20:30.550Z,8.13
2023-02-19T20:23:32.944Z,8.77
2023-02-19T20:26:34.529Z,9.50
2023-02-19T20:29:36.003Z,16.98
2023-02-19T20:32:37.430Z,15.77
2023-02-19T20:35:38.892Z,12.47
2023-02-19T20:38:43.325Z,13.83
2023-02-19T20:41:49.878Z,12.40
2023-02-19T20:44:51.263Z,13.23
2023-02-19T20:47:52.707Z,11.67
2023-02-19T20:50:59.288Z,13.10
2023-02-19T20:54:00.699Z,9.23
2023-02-19T20:57:04.972Z,6.60
2023-02-19T21:00:08.162Z,9.30
2023-02-19T21:03:11.497Z,8.27
2023-02-19T21:06:13.176Z,8.10
2023-02-19T21:09:14.843Z,8.15
2023-02-19T21:12:16.531Z,7.23
2023-02-19T21:15:18.474Z,6.22
2023-02-19T21:18:19.953Z,5.75
2023-02-19T21:21:25.154Z,5.67
2023-02-19T21:24:26.607Z,5.50
2023-02-19T21:27:28.095Z,5.93
2023-02-19T21:30:29.609Z,7.13
2023-02-19T21:33:31.081Z,6.03
2023-02-19T21:36:32.888Z,6.60
2023-02-19T21:39:34.645Z,5.90
2023-02-19T21:42:36.074Z,6.10
2023-02-19T21:45:37.495Z,5.80
2023-02-19T21:48:38.940Z,5.87
2023-02-19T21:51:43.597Z,8.00
2023-02-19T21:54:45.032Z,7.00
2023-02-19T21:57:46.493Z,6.20
2023-02-19T22:00:47.916Z,6.17
2023-02-19T22:03:49.391Z,5.50
2023-02-19T22:06:54.805Z,4.47
2023-02-19T22:09:56.765Z,4.50
2023-02-19T22:12:58.287Z,4.15
2023-02-19T22:15:59.783Z,4.77
2023-02-19T22:19:01.245Z,4.10
2023-02-19T22:22:03.193Z,4.30
2023-02-19T22:25:04.774Z,4.30
2023-02-19T22:28:07.793Z,4.20
2023-02-19T22:31:09.258Z,3.67
2023-02-19T22:34:11.748Z,3.90
2023-02-19T22:37:13.184Z,4.38
2023-02-19T22:40:14.584Z,4.60
2023-02-19T22:43:19.174Z,3.80
2023-02-19T22:46:23.049Z,4.75
2023-02-19T22:49:24.680Z,4.70
2023-02-19T22:52:27.959Z,4.05
2023-02-19T22:55:29.356Z,4.20
2023-02-19T22:58:30.777Z,3.90
2023-02-19T23:01:32.494Z,4.40
2023-02-19T23:04:33.947Z,4.22
2023-02-19T23:07:35.470Z,4.20
2023-02-19T23:10:36.970Z,5.00
2023-02-19T23:13:41.077Z,5.87
2023-02-19T23:16:42.562Z,6.35
2023-02-19T23:19:44.060Z,6.30
2023-02-19T23:22:45.668Z,5.03
2023-02-19T23:25:47.139Z,4.53
2023-02-19T23:28:48.941Z,4.70
2023-02-19T23:31:50.848Z,4.20
2023-02-19T23:34:52.356Z,4.05
2023-02-19T23:37:55.005Z,4.47
2023-02-19T23:40:56.482Z,4.65
2023-02-19T23:43:57.940Z,4.77
2023-02-19T23:46:59.540Z,3.70
2023-02-19T23:50:00.960Z,4.20
2023-02-19T23:53:02.632Z,4.07
2023-02-19T23:56:04.392Z,4.15
2023-02-19T23:59:06.724Z,4.43
